Time;durP1;ratioP1;P1;durP2;ratioP2;P2;SDS_P1;SDS_P2;PMS_P1;PMS_P2;Temp;Humidity;BMP_temperature;BMP_pressure;BME280_temperature;BME280_humidity;BME280_pressure;Samples;Min_cycle;Max_cycle;Signal;HPM_P1;HPM_P2
2022/07/14 00:01:02;;;;;;;2.50;1.40;;;22.20;49.70;;;;;;5110153;28;20031;-72
2022/07/14 00:03:28;;;;;;;3.67;1.90;;;22.10;49.60;;;;;;5113582;28;20126;-70
2022/07/14 00:05:54;;;;;;;1.88;1.45;;;22.10;49.80;;;;;;5113637;28;20102;-72
2022/07/14 00:08:20;;;;;;;2.08;1.50;;;22.10;49.80;;;;;;5113960;28;20491;-72
2022/07/14 00:10:46;;;;;;;1.42;1.33;;;22.00;50.00;;;;;;5113903;28;20084;-72
2022/07/14 00:13:11;;;;;;;1.95;1.48;;;22.00;50.10;;;;;;5113815;28;20027;-70
2022/07/14 00:15:37;;;;;;;2.30;1.02;;;22.00;50.00;;;;;;5112483;28;20031;-70
2022/07/14 00:18:03;;;;;;;1.95;1.23;;;22.00;50.20;;;;;;5113676;28;20061;-71
2022/07/14 00:20:29;;;;;;;3.08;1.65;;;21.90;49.90;;;;;;5112562;28;20531;-72
2022/07/14 00:22:58;;;;;;;1.95;1.25;;;21.90;50.10;;;;;;5114006;28;20024;-72
2022/07/14 00:25:25;;;;;;;2.55;1.38;;;21.80;50.20;;;;;;5113974;28;20016;-71
2022/07/14 00:27:51;;;;;;;1.50;0.98;;;21.80;50.30;;;;;;5107023;28;20362;-71
2022/07/14 00:30:17;;;;;;;1.38;1.20;;;21.80;50.20;;;;;;5093306;28;20020;-70
2022/07/14 00:32:43;;;;;;;1.27;1.17;;;21.70;50.30;;;;;;5093535;28;20024;-72
2022/07/14 00:35:09;;;;;;;1.67;1.30;;;21.70;50.30;;;;;;5111823;28;20059;-71
2022/07/14 00:37:35;;;;;;;1.65;1.50;;;21.70;50.60;;;;;;5113850;28;20027;-72
2022/07/14 00:40:04;;;;;;;2.03;1.67;;;21.60;50.40;;;;;;5112388;28;20073;-70
2022/07/14 00:42:32;;;;;;;3.47;1.42;;;21.60;50.40;;;;;;5113490;27;20023;-72
2022/07/14 00:44:59;;;;;;;3.35;1.23;;;21.50;50.40;;;;;;5112195;28;20073;-71
2022/07/14 00:47:24;;;;;;;1.40;1.20;;;21.50;50.50;;;;;;5113336;28;20499;-70
2022/07/14 00:49:55;;;;;;;2.25;1.60;;;21.50;50.70;;;;;;5113420;28;20048;-70
2022/07/14 00:52:24;;;;;;;3.30;1.33;;;21.40;50.80;;;;;;5113356;28;20055;-70
2022/07/14 00:54:50;;;;;;;1.90;1.58;;;21.40;50.80;;;;;;5113428;27;20035;-72
2022/07/14 00:57:16;;;;;;;1.38;1.20;;;21.40;50.80;;;;;;5112362;28;20028;-72
2022/07/14 00:59:42;;;;;;;1.95;1.42;;;21.30;50.80;;;;;;5097660;28;20038;-71
2022/07/14 01:02:08;;;;;;;2.88;1.30;;;21.30;51.00;;;;;;5113125;28;20076;-70
2022/07/14 01:04:34;;;;;;;2.03;1.60;;;21.30;50.90;;;;;;5113113;28;20050;-71
2022/07/14 01:06:59;;;;;;;1.98;1.35;;;21.30;51.10;;;;;;5112965;28;20051;-70
2022/07/14 01:09:25;;;;;;;1.38;1.20;;;21.30;51.50;;;;;;5111695;28;20567;-70
2022/07/14 01:11:51;;;;;;;1.77;1.63;;;21.30;51.60;;;;;;5112965;28;20469;-70
2022/07/14 01:14:17;;;;;;;3.85;1.60;;;21.30;51.80;;;;;;5112925;28;20036;-70
2022/07/14 01:16:43;;;;;;;1.55;1.10;;;21.30;51.70;;;;;;5111658;28;20433;-71
2022/07/14 01:19:09;;;;;;;2.60;1.20;;;21.30;51.60;;;;;;5112719;28;20024;-71
2022/07/14 01:21:34;;;;;;;1.50;1.33;;;21.30;51.70;;;;;;5112692;28;20066;-70
2022/07/14 01:24:01;;;;;;;1.38;1.20;;;21.30;52.40;;;;;;5112652;28;20055;-71
2022/07/14 01:26:26;;;;;;;1.48;1.30;;;21.30;52.30;;;;;;5112796;28;20131;-71
2022/07/14 01:28:52;;;;;;;1.35;1.10;;;21.30;52.10;;;;;;5110990;28;20055;-72
2022/07/14 01:31:18;;;;;;;3.03;1.60;;;21.30;52.30;;;;;;5112703;28;20069;-70
2022/07/14 01:33:44;;;;;;;1.65;1.45;;;21.20;52.40;;;;;;5112744;28;20039;-71
2022/07/14 01:36:09;;;;;;;2.65;1.80;;;21.20;52.30;;;;;;5112239;28;20031;-70
2022/07/14 01:38:35;;;;;;;2.00;1.50;;;21.10;52.50;;;;;;5112741;28;20476;-73
2022/07/14 01:41:01;;;;;;;1.33;1.20;;;21.10;52.30;;;;;;5111862;28;20032;-70
2022/07/14 01:43:27;;;;;;;1.73;1.63;;;21.10;52.50;;;;;;5112527;28;20028;-70
2022/07/14 01:45:52;;;;;;;3.38;1.85;;;21.10;52.70;;;;;;5112552;28;20472;-71
2022/07/14 01:48:18;;;;;;;2.42;1.45;;;21.00;52.60;;;;;;5112568;28;20047;-71
2022/07/14 01:50:44;;;;;;;1.98;1.52;;;20.90;52.90;;;;;;5112505;28;20024;-72
2022/07/14 01:53:09;;;;;;;2.17;1.50;;;20.90;53.00;;;;;;5112515;28;20454;-72
2022/07/14 01:55:35;;;;;;;4.43;1.63;;;20.90;53.30;;;;;;5112464;28;20498;-72
2022/07/14 01:58:01;;;;;;;1.98;1.73;;;20.90;53.30;;;;;;5105437;28;20036;-72
2022/07/14 02:00:27;;;;;;;1.85;1.55;;;20.90;53.50;;;;;;5090808;28;20120;-70
2022/07/14 02:02:52;;;;;;;3.10;1.70;;;20.80;53.70;;;;;;5091937;28;20481;-71
2022/07/14 02:05:18;;;;;;;1.60;1.50;;;20.80;53.70;;;;;;5092058;28;20032;-70
2022/07/14 02:07:44;;;;;;;4.25;1.60;;;20.80;53.90;;;;;;5091894;28;20576;-71
2022/07/14 02:12:54;;;;;;;2.50;1.80;;;20.80;53.90;;;;;;5092011;28;20164;-71
2022/07/14 02:15:20;;;;;;;4.30;1.80;;;20.80;54.10;;;;;;5092303;28;20101;-72
2022/07/14 02:17:46;;;;;;;2.92;1.80;;;20.70;54.30;;;;;;5091964;28;20024;-73
2022/07/14 02:20:12;;;;;;;2.38;1.73;;;20.70;54.30;;;;;;5091823;28;20047;-71
2022/07/14 02:22:38;;;;;;;2.58;1.63;;;20.70;54.30;;;;;;5091806;28;20032;-70
2022/07/14 02:25:04;;;;;;;2.72;1.45;;;20.70;54.30;;;;;;5090607;28;20027;-70
2022/07/14 02:27:30;;;;;;;2.67;1.55;;;20.70;54.50;;;;;;5092021;28;20473;-70
2022/07/14 02:29:56;;;;;;;2.30;1.80;;;20.70;54.50;;;;;;5090529;28;20039;-72
2022/07/14 02:32:21;;;;;;;2.78;1.90;;;20.60;54.40;;;;;;5091871;28;20028;-70
2022/07/14 02:34:47;;;;;;;2.50;1.90;;;20.70;54.50;;;;;;5091844;28;20034;-72
2022/07/14 02:37:14;;;;;;;2.38;1.50;;;20.60;54.60;;;;;;5091872;28;20056;-71
2022/07/14 02:39:40;;;;;;;2.85;1.98;;;20.60;54.70;;;;;;5091800;28;20388;-72
2022/07/14 02:42:05;;;;;;;3.03;1.88;;;20.70;54.90;;;;;;5091671;28;20028;-71
2022/07/14 02:44:31;;;;;;;2.20;1.50;;;20.70;54.90;;;;;;5091606;28;20032;-71
2022/07/14 02:46:57;;;;;;;7.60;1.70;;;20.70;54.90;;;;;;5091670;28;20024;-70
2022/07/14 02:49:23;;;;;;;3.10;1.85;;;20.80;54.90;;;;;;5091612;28;20099;-70
2022/07/14 02:51:48;;;;;;;2.72;1.65;;;20.80;54.80;;;;;;5091637;28;20061;-72
2022/07/14 02:54:14;;;;;;;1.73;1.50;;;20.80;54.90;;;;;;5095225;28;20031;-72
2022/07/14 02:56:40;;;;;;;6.18;2.00;;;20.90;55.30;;;;;;5095189;28;20550;-70
2022/07/14 02:59:07;;;;;;;3.15;1.60;;;20.90;55.40;;;;;;5095328;28;20541;-71
2022/07/14 03:01:33;;;;;;;2.70;1.42;;;20.90;55.30;;;;;;5095053;28;20429;-72
2022/07/14 03:03:59;;;;;;;3.25;1.70;;;21.00;55.20;;;;;;5095066;28;20062;-71
2022/07/14 03:06:25;;;;;;;1.98;1.48;;;21.00;55.20;;;;;;5095320;28;20043;-71
2022/07/14 03:08:51;;;;;;;2.42;1.70;;;21.00;55.10;;;;;;5095069;28;20066;-70
2022/07/14 03:11:16;;;;;;;2.20;1.75;;;21.00;55.00;;;;;;5095197;28;20065;-71
2022/07/14 03:13:43;;;;;;;1.50;1.38;;;21.10;55.30;;;;;;5095660;28;20020;-70
2022/07/14 03:16:10;;;;;;;7.57;1.50;;;21.10;55.40;;;;;;5095909;28;20027;-70
2022/07/14 03:18:39;;;;;;;2.95;1.63;;;21.10;55.20;;;;;;5095579;28;20380;-72
2022/07/14 03:21:11;;;;;;;2.83;1.60;;;21.10;55.40;;;;;;5095312;28;20067;-72
2022/07/14 03:23:37;;;;;;;3.45;1.80;;;21.20;55.40;;;;;;5095413;28;20434;-71
2022/07/14 03:26:03;;;;;;;7.40;1.80;;;21.20;55.50;;;;;;5095480;28;20388;-71
2022/07/14 03:28:29;;;;;;;2.50;1.50;;;21.30;55.30;;;;;;5095677;28;20028;-72
2022/07/14 03:30:58;;;;;;;4.45;1.55;;;21.30;55.20;;;;;;5095384;28;20091;-72
2022/07/14 03:33:24;;;;;;;2.63;1.48;;;21.30;55.20;;;;;;5093913;28;20115;-71
2022/07/14 03:35:50;;;;;;;1.95;1.42;;;21.40;55.00;;;;;;5095268;28;20448;-70
2022/07/14 03:38:17;;;;;;;1.80;1.30;;;21.40;55.10;;;;;;5093899;28;20464;-73
2022/07/14 03:40:43;;;;;;;1.60;1.50;;;21.40;55.00;;;;;;5095037;28;20024;-70
2022/07/14 03:43:08;;;;;;;1.92;1.52;;;21.50;55.10;;;;;;5094987;28;20021;-70
2022/07/14 03:45:34;;;;;;;2.03;1.60;;;21.50;55.00;;;;;;5095110;28;20384;-72
2022/07/14 03:48:00;;;;;;;1.70;1.48;;;21.50;54.90;;;;;;5095043;28;20020;-71
2022/07/14 03:50:26;;;;;;;3.13;1.70;;;21.60;55.00;;;;;;5094903;28;20325;-72
2022/07/14 03:52:51;;;;;;;2.63;1.80;;;21.60;55.00;;;;;;5093603;28;20035;-72
2022/07/14 03:55:18;;;;;;;3.03;1.65;;;21.60;54.90;;;;;;5094710;28;20020;-70
2022/07/14 03:57:43;;;;;;;2.35;1.60;;;21.60;54.90;;;;;;5095059;28;20080;-70
2022/07/14 04:00:10;;;;;;;2.78;1.75;;;21.60;55.00;;;;;;5094820;28;20028;-71
2022/07/14 04:02:36;;;;;;;3.80;1.88;;;21.60;55.00;;;;;;5094885;28;20469;-70
2022/07/14 04:05:02;;;;;;;1.60;1.40;;;21.60;55.00;;;;;;5096276;27;20050;-72
2022/07/14 04:07:28;;;;;;;2.33;1.80;;;21.70;55.20;;;;;;5114852;27;20514;-72
2022/07/14 04:09:54;;;;;;;2.63;2.03;;;21.70;55.20;;;;;;5114893;28;20103;-72
2022/07/14 04:12:20;;;;;;;3.08;1.92;;;21.70;55.10;;;;;;5114781;28;20464;-71
2022/07/14 04:14:46;;;;;;;3.15;1.75;;;21.70;55.00;;;;;;5113723;28;20077;-72
2022/07/14 04:17:12;;;;;;;2.88;1.73;;;21.80;55.00;;;;;;5114636;28;20022;-71
2022/07/14 04:19:38;;;;;;;5.00;2.00;;;21.80;54.80;;;;;;5113181;28;20392;-70
2022/07/14 04:22:05;;;;;;;1.98;1.60;;;21.80;54.80;;;;;;5114571;28;20088;-70
2022/07/14 04:24:31;;;;;;;7.82;2.17;;;21.90;54.80;;;;;;5114552;28;20023;-70
2022/07/14 04:26:57;;;;;;;2.67;1.80;;;21.90;55.00;;;;;;5114467;28;20042;-72
2022/07/14 04:29:23;;;;;;;4.70;1.75;;;21.90;55.10;;;;;;5097888;28;20024;-70
2022/07/14 04:31:49;;;;;;;3.55;2.15;;;21.90;55.00;;;;;;5094062;28;20099;-70
2022/07/14 04:34:14;;;;;;;1.95;1.75;;;22.00;55.10;;;;;;5094016;28;20055;-72
2022/07/14 04:36:41;;;;;;;4.75;1.80;;;22.00;55.10;;;;;;5093980;28;20028;-70
2022/07/14 04:39:07;;;;;;;20.33;2.50;;;22.10;55.40;;;;;;5114972;27;20172;-72
2022/07/14 04:41:38;;;;;;;7.07;1.80;;;22.10;55.50;;;;;;5134982;27;20515;-72
2022/07/14 04:44:04;;;;;;;3.47;1.83;;;22.20;55.40;;;;;;5114155;27;20031;-72
2022/07/14 04:46:30;;;;;;;2.58;1.60;;;22.30;55.30;;;;;;5114330;28;20031;-70
2022/07/14 04:54:24;;;;;;;1.50;1.40;;;22.50;54.90;;;;;;5095716;28;20058;-70
2022/07/14 04:56:50;;;;;;;5.18;2.03;;;22.60;54.60;;;;;;5094667;28;20032;-70
2022/07/14 04:59:16;;;;;;;4.25;2.03;;;22.70;54.50;;;;;;5093539;28;20039;-70
2022/07/14 05:01:42;;;;;;;8.15;2.13;;;22.80;54.30;;;;;;5093676;28;20067;-71
2022/07/14 05:04:08;;;;;;;7.55;2.13;;;22.90;54.10;;;;;;5093528;28;20028;-72
2022/07/14 05:06:33;;;;;;;10.77;1.80;;;22.90;53.80;;;;;;5093610;28;20077;-72
2022/07/14 05:08:59;;;;;;;10.65;2.03;;;22.90;53.70;;;;;;5095132;28;20019;-72
2022/07/14 05:11:25;;;;;;;5.47;1.80;;;23.00;53.60;;;;;;5113729;28;20019;-72
2022/07/14 05:13:54;;;;;;;2.53;1.67;;;23.10;53.00;;;;;;5094039;28;20051;-71
2022/07/14 05:16:20;;;;;;;7.30;2.13;;;23.10;52.80;;;;;;5092302;28;20020;-71
2022/07/14 05:18:46;;;;;;;13.95;2.78;;;23.20;52.90;;;;;;5093032;28;20028;-72
2022/07/14 05:21:12;;;;;;;13.40;2.95;;;23.30;52.90;;;;;;5093055;28;20126;-71
2022/07/14 05:23:38;;;;;;;13.45;2.30;;;23.40;52.70;;;;;;5105262;27;20106;-71
2022/07/14 05:26:12;;;;;;;10.05;2.17;;;23.40;52.50;;;;;;5111927;28;20443;-71
2022/07/14 05:28:39;;;;;;;7.80;1.73;;;23.50;52.40;;;;;;5103865;28;20032;-71
2022/07/14 05:31:05;;;;;;;5.07;2.08;;;23.60;52.40;;;;;;5112647;27;20038;-71
2022/07/14 05:33:31;;;;;;;5.53;2.03;;;23.60;52.30;;;;;;5113292;28;20130;-71
2022/07/14 05:35:57;;;;;;;23.60;3.80;;;23.60;52.10;;;;;;5113234;28;20055;-69
2022/07/14 05:38:23;;;;;;;10.02;2.58;;;23.70;52.00;;;;;;5113352;28;20055;-71
2022/07/14 05:40:50;;;;;;;17.13;2.45;;;23.70;51.70;;;;;;5113488;28;20034;-72
2022/07/14 05:43:16;;;;;;;10.35;2.60;;;23.70;51.50;;;;;;5113347;28;20392;-70
2022/07/14 05:45:42;;;;;;;5.82;2.10;;;23.70;51.30;;;;;;5113372;28;20050;-69
2022/07/14 05:48:08;;;;;;;5.18;1.45;;;23.70;51.40;;;;;;5113270;28;20461;-70
2022/07/14 05:50:33;;;;;;;7.15;2.05;;;23.70;51.40;;;;;;5113213;28;20460;-69
2022/07/14 05:52:59;;;;;;;12.40;2.15;;;23.70;51.50;;;;;;5102629;28;20072;-72
2022/07/14 05:55:25;;;;;;;8.10;1.83;;;23.70;51.30;;;;;;5098610;28;20035;-70
2022/07/14 05:57:51;;;;;;;6.38;1.83;;;23.60;51.20;;;;;;5098044;28;20024;-71
2022/07/14 06:00:18;;;;;;;6.10;2.03;;;23.60;51.30;;;;;;5109031;28;20020;-72
2022/07/14 06:02:44;;;;;;;7.15;1.83;;;23.60;51.40;;;;;;5111711;28;20476;-72
2022/07/14 06:05:10;;;;;;;3.30;1.65;;;23.50;51.40;;;;;;5109271;28;20027;-71
2022/07/14 06:07:37;;;;;;;3.17;2.03;;;23.50;51.50;;;;;;5113032;28;20099;-72
2022/07/14 06:10:05;;;;;;;8.13;2.08;;;23.50;51.50;;;;;;5113131;28;20043;-69
2022/07/14 06:12:37;;;;;;;6.60;1.90;;;23.50;51.60;;;;;;5113159;28;20028;-74
2022/07/14 06:15:05;;;;;;;6.68;1.85;;;23.50;51.80;;;;;;5112410;28;20020;-73
2022/07/14 06:17:31;;;;;;;4.85;1.92;;;23.60;52.00;;;;;;5111676;28;20024;-70
2022/07/14 06:20:05;;;;;;;9.20;2.72;;;23.60;52.00;;;;;;5110291;28;20050;-72
2022/07/14 06:22:31;;;;;;;;;;;23.60;52.10;;;;;;5113256;28;20073;-70
2022/07/14 06:24:57;;;;;;;9.77;2.85;;;23.70;52.00;;;;;;5113179;28;19904;-71
2022/07/14 06:27:23;;;;;;;5.38;2.45;;;23.80;51.90;;;;;;5113938;28;20388;-71
2022/07/14 06:29:49;;;;;;;8.63;2.35;;;23.80;51.80;;;;;;5112802;28;20031;-70
2022/07/14 06:32:15;;;;;;;6.40;2.08;;;23.80;51.40;;;;;;5117090;28;20046;-73
2022/07/14 06:34:41;;;;;;;4.90;2.20;;;23.90;51.40;;;;;;5117377;28;20544;-72
2022/07/14 06:37:07;;;;;;;5.82;2.13;;;23.90;51.20;;;;;;5116970;28;20384;-70
2022/07/14 06:39:35;;;;;;;14.70;2.67;;;24.00;51.30;;;;;;5116909;28;20083;-69
2022/07/14 06:42:03;;;;;;;6.25;2.45;;;24.10;51.20;;;;;;5116849;28;20102;-70
2022/07/14 06:44:29;;;;;;;7.95;2.90;;;24.20;51.00;;;;;;5115400;28;20114;-73
2022/07/14 06:46:55;;;;;;;4.35;2.47;;;24.30;50.90;;;;;;5116656;28;20099;-71
2022/07/14 06:49:22;;;;;;;3.50;2.20;;;24.40;50.90;;;;;;5116497;28;20035;-69
2022/07/14 06:51:48;;;;;;;6.95;2.58;;;24.50;50.60;;;;;;5112593;28;20016;-71
2022/07/14 06:54:15;;;;;;;4.70;2.53;;;24.70;50.50;;;;;;5116546;28;20038;-70
2022/07/14 06:56:41;;;;;;;5.82;2.28;;;24.90;50.40;;;;;;5116522;28;20027;-72
2022/07/14 06:59:08;;;;;;;6.03;2.35;;;25.10;49.90;;;;;;5103154;28;20032;-73
2022/07/14 07:01:34;;;;;;;7.70;2.78;;;25.30;49.60;;;;;;5113070;28;20485;-72
2022/07/14 07:03:59;;;;;;;7.90;3.47;;;25.50;49.50;;;;;;5114644;28;20027;-72
2022/07/14 07:06:44;;;;;;;11.95;2.95;;;25.70;49.50;;;;;;5117528;27;20023;-70
2022/07/14 07:09:20;;;;;;;5.63;2.60;;;25.80;48.90;;;;;;5122598;27;20023;-71
2022/07/14 07:11:49;;;;;;;5.85;2.33;;;26.00;48.60;;;;;;5116176;28;20540;-71
2022/07/14 07:14:17;;;;;;;4.75;2.08;;;26.20;48.00;;;;;;5096945;28;20024;-68
2022/07/14 07:16:44;;;;;;;8.98;2.75;;;26.20;47.90;;;;;;5110418;27;20027;-69
2022/07/14 07:19:10;;;;;;;2.90;2.03;;;26.30;47.60;;;;;;5095713;28;20442;-69
2022/07/14 07:21:36;;;;;;;3.72;2.10;;;26.40;47.70;;;;;;5107582;28;20086;-69
2022/07/14 07:24:02;;;;;;;2.97;2.03;;;26.40;47.50;;;;;;5121486;27;20123;-69
2022/07/14 07:26:36;;;;;;;6.43;2.40;;;26.50;47.30;;;;;;5115484;28;20368;-70
2022/07/14 07:29:03;;;;;;;9.23;2.25;;;26.60;47.40;;;;;;5113747;28;20019;-68
2022/07/14 07:31:29;;;;;;;5.95;2.08;;;26.70;47.30;;;;;;5115558;28;20167;-69
2022/07/14 07:33:55;;;;;;;6.75;2.42;;;26.70;47.10;;;;;;5115367;28;20031;-70
2022/07/14 07:36:21;;;;;;;4.40;2.10;;;26.80;46.90;;;;;;5115420;28;20036;-70
2022/07/14 07:38:47;;;;;;;5.35;2.28;;;26.80;47.00;;;;;;5114675;28;20472;-69
2022/07/14 07:41:13;;;;;;;2.78;1.90;;;26.80;46.80;;;;;;5105937;28;20055;-69
2022/07/14 07:43:39;;;;;;;17.92;2.55;;;26.80;46.80;;;;;;5094816;28;20063;-69
2022/07/14 07:46:05;;;;;;;3.05;1.90;;;26.80;46.50;;;;;;5095118;28;20571;-69
2022/07/14 07:48:32;;;;;;;13.77;2.05;;;26.80;46.40;;;;;;5095134;28;20515;-71
2022/07/14 07:50:58;;;;;;;1.60;1.50;;;26.80;45.60;;;;;;5094923;28;20449;-68
2022/07/14 07:53:24;;;;;;;3.88;2.08;;;26.80;45.40;;;;;;5094808;28;20388;-68
2022/07/14 07:55:50;;;;;;;5.47;1.92;;;26.80;45.40;;;;;;5095541;28;20024;-71
2022/07/14 07:58:15;;;;;;;3.50;1.60;;;26.80;45.40;;;;;;5097759;28;20460;-70
2022/07/14 08:00:41;;;;;;;5.55;2.00;;;26.80;44.90;;;;;;5109612;28;20038;-68
2022/07/14 08:03:07;;;;;;;5.28;1.80;;;26.80;45.50;;;;;;5114778;28;20024;-71
2022/07/14 08:05:34;;;;;;;2.55;1.70;;;26.80;45.40;;;;;;5114841;28;20019;-70
2022/07/14 08:08:00;;;;;;;1.75;1.63;;;26.80;45.40;;;;;;5114989;28;20020;-69
2022/07/14 08:10:26;;;;;;;8.30;2.10;;;26.80;44.40;;;;;;5103509;28;20363;-69
2022/07/14 08:12:52;;;;;;;5.15;1.90;;;26.80;44.40;;;;;;5112060;28;20076;-69
2022/07/14 08:15:18;;;;;;;4.95;1.60;;;26.80;44.20;;;;;;5113807;28;20031;-71
2022/07/14 08:17:44;;;;;;;2.92;1.75;;;26.90;44.80;;;;;;5104564;28;20028;-69
2022/07/14 08:20:12;;;;;;;5.75;4.72;;;26.90;44.30;;;;;;5114353;28;20118;-70
2022/07/14 08:22:38;;;;;;;6.90;2.65;;;27.00;44.20;;;;;;5113258;28;20472;-71
2022/07/14 08:25:06;;;;;;;5.07;2.38;;;27.00;43.10;;;;;;5095154;28;20081;-70
2022/07/14 08:27:33;;;;;;;6.00;4.68;;;27.10;42.30;;;;;;5097240;28;20111;-69
2022/07/14 08:29:59;;;;;;;6.30;3.20;;;27.10;42.20;;;;;;5095287;28;20036;-70
2022/07/14 08:32:44;;;;;;;3.40;1.60;;;27.20;41.30;;;;;;5098192;28;20031;-70
2022/07/14 08:35:15;;;;;;;1.70;1.60;;;27.30;41.80;;;;;;5106013;28;20011;-71
2022/07/14 08:37:41;;;;;;;2.30;1.70;;;27.30;41.20;;;;;;5114801;28;20035;-70
2022/07/14 08:40:10;;;;;;;1.90;1.60;;;27.40;41.00;;;;;;5102382;28;20491;-68
2022/07/14 08:42:38;;;;;;;4.00;1.60;;;27.50;40.60;;;;;;5095959;28;20427;-73
2022/07/14 08:45:10;;;;;;;4.68;1.80;;;27.60;40.50;;;;;;5107362;28;20016;-72
2022/07/14 08:47:37;;;;;;;12.15;1.83;;;27.70;40.50;;;;;;5095271;28;20603;-70
2022/07/14 08:50:09;;;;;;;3.55;1.50;;;27.70;40.40;;;;;;5092303;28;20031;-70
2022/07/14 08:52:36;;;;;;;3.33;1.85;;;27.80;40.10;;;;;;5094169;28;20024;-74
2022/07/14 08:55:04;;;;;;;5.20;1.80;;;27.90;39.80;;;;;;5094033;28;20044;-71
2022/07/14 08:57:31;;;;;;;5.70;2.72;;;27.90;39.70;;;;;;5099717;28;20023;-74
2022/07/14 08:59:57;;;;;;;3.13;2.40;;;28.00;40.10;;;;;;5110446;28;20038;-74
2022/07/14 09:02:23;;;;;;;1.75;1.60;;;28.00;39.70;;;;;;5100741;28;20111;-76
2022/07/14 09:04:49;;;;;;;2.70;1.33;;;28.10;38.90;;;;;;5106858;28;20111;-73
2022/07/14 09:07:36;;;;;;;5.93;1.60;;;28.20;39.20;;;;;;5093570;28;20015;-72
2022/07/14 09:10:07;;;;;;;2.53;1.88;;;28.20;39.50;;;;;;5092386;28;20479;-71
2022/07/14 09:12:34;;;;;;;4.88;1.73;;;28.30;39.40;;;;;;5093648;28;20020;-74
2022/07/14 09:17:55;;;;;;;2.67;1.85;;;28.40;39.50;;;;;;5113904;28;20031;-70
2022/07/14 09:20:23;;;;;;;5.07;1.88;;;28.50;39.30;;;;;;5113601;28;20055;-71
2022/07/14 09:22:56;;;;;;;2.28;2.03;;;28.50;39.50;;;;;;5111772;28;20034;-73
2022/07/14 09:25:24;;;;;;;9.65;2.15;;;28.60;39.80;;;;;;5113718;28;20023;-71
2022/07/14 09:27:50;;;;;;;1.75;1.50;;;28.60;39.10;;;;;;5101040;28;20024;-71
2022/07/14 09:30:16;;;;;;;7.10;1.77;;;28.70;39.10;;;;;;5107108;28;20051;-70
2022/07/14 09:32:56;;;;;;;2.67;1.63;;;28.70;39.20;;;;;;5124346;27;20033;-71
2022/07/14 09:35:34;;;;;;;3.17;1.83;;;28.70;39.10;;;;;;5131202;27;20132;-73
2022/07/14 09:38:22;;;;;;;3.80;1.80;;;28.80;39.40;;;;;;5119442;27;20480;-73
2022/07/14 09:40:50;;;;;;;2.13;1.50;;;28.90;39.40;;;;;;5110168;28;20031;-75
2022/07/14 09:43:16;;;;;;;2.88;1.63;;;28.90;38.90;;;;;;5103844;28;20032;-73
2022/07/14 09:45:49;;;;;;;2.88;1.80;;;28.90;39.30;;;;;;5113371;28;20020;-73
2022/07/14 09:48:19;;;;;;;5.28;1.52;;;29.00;38.70;;;;;;5095399;28;20024;-73
2022/07/14 09:51:00;;;;;;;16.77;2.03;;;29.10;39.10;;;;;;5094248;28;20025;-72
2022/07/14 09:53:34;;;;;;;2.75;1.75;;;29.10;38.50;;;;;;5093077;28;20027;-74
2022/07/14 09:56:01;;;;;;;6.97;1.67;;;29.20;38.70;;;;;;5092991;28;20027;-73
2022/07/14 09:58:52;;;;;;;8.13;1.85;;;29.20;38.60;;;;;;5092917;28;20102;-76
2022/07/14 10:01:19;;;;;;;7.70;1.70;;;29.30;38.00;;;;;;5093033;28;20022;-72
2022/07/14 10:03:49;;;;;;;7.30;1.73;;;29.30;37.70;;;;;;5096124;28;20020;-72
2022/07/14 10:06:15;;;;;;;6.80;1.88;;;29.40;38.00;;;;;;5097127;28;20020;-73
2022/07/14 10:08:46;;;;;;;5.40;2.13;;;29.50;37.90;;;;;;5097102;28;20103;-71
2022/07/14 10:11:12;;;;;;;3.03;1.27;;;29.60;37.10;;;;;;5097077;28;20024;-73
2022/07/14 10:13:39;;;;;;;2.80;1.60;;;29.70;37.30;;;;;;5097184;28;20420;-73
2022/07/14 10:16:06;;;;;;;2.63;1.67;;;29.80;37.60;;;;;;5097029;28;20413;-74
2022/07/14 10:18:33;;;;;;;4.75;1.58;;;29.80;37.40;;;;;;5096928;28;20103;-70
2022/07/14 10:21:00;;;;;;;1.80;1.70;;;29.90;36.80;;;;;;5095456;28;20075;-74
2022/07/14 10:23:29;;;;;;;4.80;1.45;;;29.90;36.70;;;;;;5095535;28;20024;-74
2022/07/14 10:25:59;;;;;;;5.43;1.08;;;30.00;36.70;;;;;;5095515;28;20119;-73
2022/07/14 10:28:26;;;;;;;4.07;1.30;;;30.10;36.30;;;;;;5097215;28;20016;-74
2022/07/14 10:31:03;;;;;;;5.32;1.10;;;30.10;36.50;;;;;;5095446;28;20135;-73
2022/07/14 10:33:52;;;;;;;3.63;1.13;;;30.20;35.60;;;;;;5095382;28;20020;-72
2022/07/14 10:36:27;;;;;;;4.15;1.25;;;30.20;35.30;;;;;;5088282;28;20064;-75
2022/07/14 10:39:17;;;;;;;4.00;1.30;;;30.30;35.40;;;;;;5095420;28;20028;-72
2022/07/14 10:42:11;;;;;;;4.57;1.20;;;30.30;35.80;;;;;;5096603;28;20020;-75
2022/07/14 10:44:40;;;;;;;2.05;1.05;;;30.30;34.90;;;;;;5094955;28;20435;-73
2022/07/14 10:47:11;;;;;;;2.15;1.00;;;30.40;34.70;;;;;;5095070;28;20115;-73
2022/07/14 10:50:04;;;;;;;3.53;1.13;;;30.50;34.50;;;;;;5096419;28;20095;-71
2022/07/14 10:52:33;;;;;;;1.10;0.97;;;30.60;34.60;;;;;;5096238;28;20023;-73
2022/07/14 10:55:22;;;;;;;1.05;0.98;;;30.60;33.70;;;;;;5094960;28;20258;-75
2022/07/14 10:58:00;;;;;;;4.60;1.13;;;30.60;33.00;;;;;;5096281;28;20024;-72
2022/07/14 11:00:42;;;;;;;2.50;1.05;;;30.70;32.90;;;;;;5096201;28;20496;-73
2022/07/14 11:03:20;;;;;;;1.40;1.00;;;30.70;33.40;;;;;;5096163;28;20028;-73
2022/07/14 11:06:03;;;;;;;7.38;1.83;;;30.80;33.30;;;;;;5096138;28;20488;-70
2022/07/14 11:08:31;;;;;;;2.58;0.95;;;30.80;32.90;;;;;;5096050;28;20020;-75
2022/07/14 11:10:59;;;;;;;1.70;1.23;;;30.90;32.60;;;;;;5096030;28;20099;-75
2022/07/14 11:13:26;;;;;;;10.23;1.90;;;30.90;32.50;;;;;;5095802;28;20035;-73
2022/07/14 11:15:55;;;;;;;2.08;1.35;;;31.00;32.60;;;;;;5095890;28;20078;-75
2022/07/14 11:18:28;;;;;;;2.92;1.30;;;31.00;32.00;;;;;;5095796;28;20462;-74
2022/07/14 11:21:07;;;;;;;4.82;1.50;;;31.10;32.10;;;;;;5095605;28;20085;-70
2022/07/14 11:23:48;;;;;;;1.30;1.20;;;31.10;31.90;;;;;;5094288;28;20052;-75
2022/07/14 11:26:38;;;;;;;5.72;1.67;;;31.10;32.40;;;;;;5094679;28;20381;-75
2022/07/14 11:29:06;;;;;;;5.28;1.30;;;31.20;32.20;;;;;;5095924;28;20490;-74
2022/07/14 11:31:45;;;;;;;9.07;1.27;;;31.30;32.00;;;;;;5095697;28;20095;-73
2022/07/14 11:37:15;;;;;;;3.50;1.63;;;31.40;31.80;;;;;;5095775;28;20139;-72
2022/07/14 11:39:44;;;;;;;3.03;1.30;;;31.40;31.10;;;;;;5095450;28;20028;-71
2022/07/14 11:42:13;;;;;;;9.20;1.42;;;31.50;31.10;;;;;;5095458;28;20024;-73
2022/07/14 11:44:38;;;;;;;2.40;1.30;;;31.50;31.20;;;;;;5095084;28;20502;-70
2022/07/14 11:47:13;;;;;;;3.13;1.30;;;31.60;31.20;;;;;;5095273;28;20052;-74
2022/07/14 11:49:39;;;;;;;5.68;1.25;;;31.70;31.20;;;;;;5095320;28;20016;-72
2022/07/14 11:52:06;;;;;;;3.33;1.88;;;31.70;31.10;;;;;;5095210;28;20358;-73
2022/07/14 11:54:33;;;;;;;6.50;1.40;;;31.80;30.90;;;;;;5093538;28;20115;-73
2022/07/14 11:57:10;;;;;;;4.63;1.00;;;31.90;30.60;;;;;;5095138;28;20020;-75
2022/07/14 11:59:40;;;;;;;11.45;1.85;;;31.90;30.70;;;;;;5108537;28;20030;-73
2022/07/14 12:02:10;;;;;;;5.32;1.10;;;31.90;30.60;;;;;;5115552;28;20015;-73
2022/07/14 12:04:50;;;;;;;4.88;1.33;;;32.00;30.20;;;;;;5115319;27;20030;-72
2022/07/14 12:07:16;;;;;;;4.88;1.98;;;32.10;30.60;;;;;;5114128;28;20077;-76
2022/07/14 12:09:42;;;;;;;3.80;1.50;;;32.10;29.60;;;;;;5115300;28;20023;-70
2022/07/14 12:12:08;;;;;;;6.38;1.40;;;32.20;30.00;;;;;;5115147;28;20385;-75
2022/07/14 12:14:50;;;;;;;4.68;1.20;;;32.30;29.90;;;;;;5115221;28;20028;-71
2022/07/14 12:17:17;;;;;;;1.13;1.02;;;32.40;29.90;;;;;;5115286;28;20024;-71
2022/07/14 12:19:43;;;;;;;2.70;1.02;;;32.60;29.80;;;;;;5114691;28;20040;-74
2022/07/14 12:22:10;;;;;;;1.88;1.05;;;32.60;29.60;;;;;;5115066;28;20015;-73
2022/07/14 12:24:36;;;;;;;1.48;0.80;;;32.80;29.80;;;;;;5114679;28;20027;-74
2022/07/14 12:27:10;;;;;;;2.95;1.00;;;32.90;29.80;;;;;;5113442;28;20020;-73
2022/07/14 12:29:51;;;;;;;1.95;1.20;;;33.00;29.80;;;;;;5097684;28;20103;-72
2022/07/14 12:32:17;;;;;;;3.88;0.95;;;33.20;29.70;;;;;;5094454;28;20468;-74
2022/07/14 12:34:44;;;;;;;3.25;1.20;;;33.30;28.80;;;;;;5094181;28;20115;-70
2022/07/14 12:37:10;;;;;;;5.80;1.35;;;33.30;28.60;;;;;;5094237;28;20027;-73
2022/07/14 12:39:38;;;;;;;1.23;0.75;;;33.40;28.10;;;;;;5092954;28;20024;-74
2022/07/14 12:42:04;;;;;;;0.98;0.88;;;33.50;28.10;;;;;;5094127;28;20055;-76
2022/07/14 12:44:31;;;;;;;2.13;1.20;;;33.50;28.30;;;;;;5094015;28;20487;-73
2022/07/14 12:47:12;;;;;;;2.13;0.90;;;33.60;28.20;;;;;;5092938;28;20035;-75
2022/07/14 12:49:46;;;;;;;1.88;1.00;;;33.60;27.90;;;;;;5092530;28;20032;-76
2022/07/14 12:52:13;;;;;;;1.40;0.85;;;33.60;27.50;;;;;;5094061;28;20115;-74
2022/07/14 12:54:40;;;;;;;2.70;0.93;;;33.70;27.30;;;;;;5093859;28;20016;-71
2022/07/14 12:57:16;;;;;;;9.60;1.08;;;33.70;27.40;;;;;;5093908;28;20069;-75
2022/07/14 12:59:43;;;;;;;2.20;1.00;;;33.70;27.40;;;;;;5094256;28;20024;-71
2022/07/14 13:02:10;;;;;;;4.85;1.25;;;33.70;27.10;;;;;;5093860;28;20031;-72
2022/07/14 13:04:38;;;;;;;0.98;0.93;;;33.70;27.20;;;;;;5093713;28;20094;-75